Time;durP1;ratioP1;P1;durP2;ratioP2;P2;SDS_P1;SDS_P2;PMS_P1;PMS_P2;Temp;Humidity;BMP_temperature;BMP_pressure;BME280_temperature;BME280_humidity;BME280_pressure;Samples;Min_cycle;Max_cycle;Signal;HPM_P1;HPM_P2
2022/03/18 00:02:02;;;;;;;;;;;230.90;1382.40;;;;;;5033860;28;19913;-66
2022/03/18 00:04:28;;;;;;;;;;;230.90;1382.40;;;;;;5033599;28;19913;-66
2022/03/18 00:06:54;;;;;;;;;;;230.80;1382.40;;;;;;5034328;28;19986;-66
2022/03/18 00:09:19;;;;;;;;;;;230.90;1382.40;;;;;;5033924;28;20270;-66
2022/03/18 00:11:45;;;;;;;;;;;230.80;1382.40;;;;;;5034013;28;20410;-66
2022/03/18 00:14:10;;;;;;;;;;;230.80;1382.40;;;;;;5034006;28;19932;-66
2022/03/18 00:16:36;;;;;;;;;;;230.80;1382.40;;;;;;5033956;28;19909;-66
2022/03/18 00:19:02;;;;;;;;;;;230.80;1382.40;;;;;;5033689;28;19910;-66
2022/03/18 00:21:27;;;;;;;;;;;230.80;1382.40;;;;;;5033175;28;19921;-65
2022/03/18 00:23:53;;;;;;;;;;;230.80;1382.40;;;;;;5033694;28;20428;-65
2022/03/18 00:26:19;;;;;;;;;;;230.70;1382.40;;;;;;5033574;28;19917;-66
2022/03/18 00:28:44;;;;;;;;;;;230.80;1382.40;;;;;;5033205;28;20004;-65
2022/03/18 00:31:12;;;;;;;;;;;230.70;1382.40;;;;;;5033776;28;19909;-65
2022/03/18 00:33:37;;;;;;;;;;;230.70;1382.40;;;;;;5033763;28;19916;-66
2022/03/18 00:36:03;;;;;;;;;;;230.70;1382.40;;;;;;5037182;28;19909;-66
2022/03/18 00:38:29;;;;;;;;;;;230.60;1408.00;;;;;;5037281;28;19916;-67
2022/03/18 00:40:56;;;;;;;;;;;230.70;1382.40;;;;;;5037226;28;19913;-66
2022/03/18 00:43:22;;;;;;;;;;;230.60;1382.40;;;;;;5037327;28;19909;-69
2022/03/18 00:45:47;;;;;;;;;;;230.60;1408.00;;;;;;5036876;28;19963;-68
2022/03/18 00:53:41;;;;;;;;;;;230.60;1382.40;;;;;;5036968;28;19916;-66
2022/03/18 00:56:07;;;;;;;;;;;230.50;1408.00;;;;;;5036928;28;19909;-66
2022/03/18 00:58:33;;;;;;;;;;;230.50;1408.00;;;;;;5037050;28;19913;-66
2022/03/18 01:00:58;;;;;;;;;;;230.50;1382.40;;;;;;5037083;28;20006;-66
2022/03/18 01:03:24;;;;;;;;;;;230.50;1408.00;;;;;;5036786;28;20020;-67
2022/03/18 01:05:49;;;;;;;;;;;230.50;1382.40;;;;;;5036837;28;20255;-67
2022/03/18 01:08:15;;;;;;;;;;;230.40;1408.00;;;;;;5036614;28;19917;-66
2022/03/18 01:10:40;;;;;;;;;;;230.40;1408.00;;;;;;5036427;28;19909;-69
2022/03/18 01:13:06;;;;;;;;;;;230.40;1382.40;;;;;;5037298;28;19916;-66
2022/03/18 01:15:33;;;;;;;;;;;230.40;1408.00;;;;;;5036783;28;19909;-69
2022/03/18 01:17:58;;;;;;;;;;;230.40;1382.40;;;;;;5036420;28;19909;-67
2022/03/18 01:20:24;;;;;;;;;;;230.40;1382.40;;;;;;5036394;28;19916;-68
2022/03/18 01:22:50;;;;;;;;;;;230.50;1382.40;;;;;;5036648;28;19917;-65
2022/03/18 01:25:15;;;;;;;;;;;230.40;1382.40;;;;;;5036213;28;20355;-65
2022/03/18 01:27:41;;;;;;;;;;;230.40;1382.40;;;;;;5036450;28;19913;-64
2022/03/18 01:30:07;;;;;;;;;;;230.40;1382.40;;;;;;5036320;28;19935;-64
2022/03/18 01:32:33;;;;;;;;;;;230.40;1382.40;;;;;;5035770;28;20381;-64
2022/03/18 01:35:00;;;;;;;;;;;230.40;1382.40;;;;;;5036230;28;19917;-64
2022/03/18 01:37:25;;;;;;;;;;;230.50;1382.40;;;;;;5036282;28;19975;-64
2022/03/18 01:39:51;;;;;;;;;;;230.40;1382.40;;;;;;5036270;28;20363;-65
2022/03/18 01:42:17;;;;;;;;;;;230.40;1382.40;;;;;;5036253;28;20448;-63
2022/03/18 01:44:43;;;;;;;;;;;230.40;1382.40;;;;;;5036100;28;19916;-63
2022/03/18 01:47:09;;;;;;;;;;;205.70;1382.40;;;;;;5035380;28;19939;-63
2022/03/18 01:49:34;;;;;;;;;;;230.40;1382.40;;;;;;5036226;28;19916;-63
2022/03/18 01:52:00;;;;;;;;;;;205.70;1382.40;;;;;;5035944;28;19916;-64
2022/03/18 01:54:44;;;;;;;;;;;205.70;1382.40;;;;;;5035351;28;20005;-66
2022/03/18 01:57:11;;;;;;;;;;;205.60;1382.40;;;;;;5035772;28;19920;-66
2022/03/18 01:59:37;;;;;;;;;;;205.60;1382.40;;;;;;5036000;28;20006;-64
2022/03/18 02:02:03;;;;;;;;;;;205.70;1382.40;;;;;;5035446;28;20355;-64
2022/03/18 02:04:29;;;;;;;;;;;205.60;1382.40;;;;;;5035816;28;19909;-64
2022/03/18 02:06:55;;;;;;;;;;;205.50;1408.00;;;;;;5035489;28;20270;-66
2022/03/18 02:09:20;;;;;;;;;;;205.50;1382.40;;;;;;5035464;28;19916;-64
2022/03/18 02:11:46;;;;;;;;;;;205.40;1408.00;;;;;;5035230;28;20350;-64
2022/03/18 02:14:12;;;;;;;;;;;205.50;1382.40;;;;;;5035560;28;19913;-66
2022/03/18 02:16:39;;;;;;;;;;;205.40;1382.40;;;;;;5035679;28;20281;-66
2022/03/18 02:19:08;;;;;;;;;;;205.40;1408.00;;;;;;5035666;28;19913;-66
2022/03/18 02:21:34;;;;;;;;;;;205.40;1382.40;;;;;;5035512;28;19961;-65
2022/03/18 02:24:00;;;;;;;;;;;205.40;1382.40;;;;;;5035292;28;20252;-63
2022/03/18 02:26:26;;;;;;;;;;;205.40;1382.40;;;;;;5035336;28;19943;-63
2022/03/18 02:28:52;;;;;;;;;;;205.40;1382.40;;;;;;5035446;28;19909;-63
2022/03/18 02:31:18;;;;;;;;;;;205.40;1382.40;;;;;;5035304;28;20305;-64
2022/03/18 02:33:44;;;;;;;;;;;205.50;1382.40;;;;;;5035859;28;19979;-62
2022/03/18 02:36:09;;;;;;;;;;;205.40;1382.40;;;;;;5035077;28;20366;-64
2022/03/18 02:38:35;;;;;;;;;;;205.40;1382.40;;;;;;5035112;28;19913;-64
2022/03/18 02:41:00;;;;;;;;;;;205.40;1382.40;;;;;;5035649;28;19913;-66
2022/03/18 02:43:26;;;;;;;;;;;205.40;1382.40;;;;;;5035071;28;19995;-66
2022/03/18 02:45:52;;;;;;;;;;;205.40;1382.40;;;;;;5034884;28;19992;-65
2022/03/18 02:48:17;;;;;;;;;;;205.30;1382.40;;;;;;5034925;28;19909;-65
2022/03/18 02:50:43;;;;;;;;;;;205.30;1382.40;;;;;;5034867;28;19909;-64
2022/03/18 02:53:10;;;;;;;;;;;205.20;1382.40;;;;;;5034788;28;19992;-63
2022/03/18 02:55:36;;;;;;;;;;;205.20;1382.40;;;;;;5034755;28;19913;-66
2022/03/18 02:58:01;;;;;;;;;;;205.30;1382.40;;;;;;5033293;28;19910;-66
2022/03/18 03:00:27;;;;;;;;;;;205.20;1356.80;;;;;;5034748;28;19916;-64
2022/03/18 03:02:52;;;;;;;;;;;205.20;1382.40;;;;;;5034444;28;19921;-64
2022/03/18 03:08:02;;;;;;;;;;;205.10;1382.40;;;;;;5034774;28;19935;-62
2022/03/18 03:10:36;;;;;;;;;;;205.20;1382.40;;;;;;5034537;28;19909;-64
2022/03/18 03:13:03;;;;;;;;;;;205.10;1382.40;;;;;;5034427;28;19996;-61
2022/03/18 03:15:29;;;;;;;;;;;205.00;1408.00;;;;;;5034636;28;19909;-61
2022/03/18 03:17:55;;;;;;;;;;;205.10;1382.40;;;;;;5034606;28;19919;-62
2022/03/18 03:20:21;;;;;;;;;;;205.00;1382.40;;;;;;5034552;28;20240;-65
2022/03/18 03:22:46;;;;;;;;;;;205.10;1382.40;;;;;;5034140;28;20293;-63
2022/03/18 03:25:12;;;;;;;;;;;205.10;1382.40;;;;;;5034165;28;19913;-64
2022/03/18 03:27:38;;;;;;;;;;;205.10;1382.40;;;;;;5034361;28;19913;-63
2022/03/18 03:30:05;;;;;;;;;;;205.10;1382.40;;;;;;5034501;28;19916;-63
2022/03/18 03:32:30;;;;;;;;;;;205.10;1382.40;;;;;;5034135;28;20332;-63
2022/03/18 03:34:57;;;;;;;;;;;205.00;1382.40;;;;;;5034346;28;19915;-63
2022/03/18 03:37:23;;;;;;;;;;;205.10;1382.40;;;;;;5034313;28;19909;-62
2022/03/18 03:39:50;;;;;;;;;;;205.00;1382.40;;;;;;5034201;28;19931;-64
2022/03/18 03:42:16;;;;;;;;;;;205.10;1356.80;;;;;;5034280;28;19913;-62
2022/03/18 03:44:42;;;;;;;;;;;205.10;1356.80;;;;;;5034017;28;19909;-63
2022/03/18 03:47:07;;;;;;;;;;;204.90;1356.80;;;;;;5034120;28;19924;-64
2022/03/18 03:49:33;;;;;;;;;;;205.00;1356.80;;;;;;5033736;28;20361;-62
2022/03/18 03:51:58;;;;;;;;;;;204.90;1356.80;;;;;;5034115;28;19909;-62
2022/03/18 03:54:24;;;;;;;;;;;204.90;1382.40;;;;;;5033846;28;20355;-62
2022/03/18 03:56:50;;;;;;;;;;;204.90;1356.80;;;;;;5034193;28;19932;-62
2022/03/18 03:59:16;;;;;;;;;;;204.80;1356.80;;;;;;5034042;28;19999;-62
2022/03/18 04:01:41;;;;;;;;;;;204.90;1356.80;;;;;;5033672;28;20418;-62
2022/03/18 04:04:07;;;;;;;;;;;205.00;1356.80;;;;;;5034003;28;20016;-62
2022/03/18 04:06:32;;;;;;;;;;;204.90;1356.80;;;;;;5033919;28;20351;-63
2022/03/18 04:08:58;;;;;;;;;;;205.00;1356.80;;;;;;5034779;28;19932;-62
2022/03/18 04:11:24;;;;;;;;;;;205.00;1356.80;;;;;;5037767;28;20383;-64
2022/03/18 04:13:50;;;;;;;;;;;205.00;1382.40;;;;;;5037898;28;19909;-62
2022/03/18 04:16:15;;;;;;;;;;;205.10;1356.80;;;;;;5037888;28;20255;-61
2022/03/18 04:18:41;;;;;;;;;;;205.00;1382.40;;;;;;5037681;28;19909;-61
2022/03/18 04:21:06;;;;;;;;;;;205.00;1382.40;;;;;;5037754;28;19967;-64
2022/03/18 04:23:32;;;;;;;;;;;205.10;1356.80;;;;;;5037663;28;19909;-63
2022/03/18 04:25:57;;;;;;;;;;;205.10;1382.40;;;;;;5037619;28;20486;-63
2022/03/18 04:28:23;;;;;;;;;;;205.10;1382.40;;;;;;5037535;28;20267;-62
2022/03/18 04:30:48;;;;;;;;;;;205.20;1356.80;;;;;;5037896;28;19916;-62
2022/03/18 04:33:14;;;;;;;;;;;205.10;1356.80;;;;;;5037431;28;19959;-62
2022/03/18 04:35:40;;;;;;;;;;;205.20;1356.80;;;;;;5037606;28;19909;-65
2022/03/18 04:38:05;;;;;;;;;;;205.10;1356.80;;;;;;5037532;28;20359;-62
2022/03/18 04:40:32;;;;;;;;;;;205.10;1356.80;;;;;;5037201;28;19914;-62
2022/03/18 04:42:58;;;;;;;;;;;205.20;1356.80;;;;;;5037523;28;19932;-62
2022/03/18 04:45:23;;;;;;;;;;;205.10;1331.20;;;;;;5037199;28;20351;-62
2022/03/18 04:47:49;;;;;;;;;;;205.10;1356.80;;;;;;5037318;28;19952;-62
2022/03/18 04:50:15;;;;;;;;;;;205.20;1331.20;;;;;;5037309;28;20395;-62
2022/03/18 04:52:40;;;;;;;;;;;205.20;1331.20;;;;;;5037277;28;20363;-62
2022/03/18 04:55:06;;;;;;;;;;;205.20;1331.20;;;;;;5036994;28;19913;-62
2022/03/18 04:57:32;;;;;;;;;;;205.30;1331.20;;;;;;5036959;28;19910;-62
2022/03/18 04:59:58;;;;;;;;;;;205.30;1305.60;;;;;;5036914;28;19909;-65
2022/03/18 05:02:24;;;;;;;;;;;205.30;1305.60;;;;;;5036633;28;19925;-62
2022/03/18 05:04:50;;;;;;;;;;;205.30;1305.60;;;;;;5036568;28;19955;-63
2022/03/18 05:07:16;;;;;;;;;;;205.30;1280.00;;;;;;5036741;28;20274;-63
2022/03/18 05:09:42;;;;;;;;;;;205.40;1280.00;;;;;;5036751;28;19909;-62
2022/03/18 05:12:08;;;;;;;;;;;205.40;1280.00;;;;;;5036916;28;19909;-63
2022/03/18 05:14:35;;;;;;;;;;;205.30;1254.40;;;;;;5036551;28;19909;-63
2022/03/18 05:17:01;;;;;;;;;;;205.40;1254.40;;;;;;5036856;28;19959;-62
2022/03/18 05:19:27;;;;;;;;;;;205.40;1254.40;;;;;;5036684;28;20420;-62
2022/03/18 05:21:52;;;;;;;;;;;205.40;1254.40;;;;;;5035383;28;19932;-62
2022/03/18 05:24:18;;;;;;;;;;;205.40;1254.40;;;;;;5036421;28;19952;-62
2022/03/18 05:26:43;;;;;;;;;;;205.40;1254.40;;;;;;5036404;28;20291;-64
2022/03/18 05:29:09;;;;;;;;;;;205.40;1254.40;;;;;;5036393;28;19994;-63
2022/03/18 05:31:36;;;;;;;;;;;205.40;1254.40;;;;;;5036079;28;19913;-63
2022/03/18 05:34:01;;;;;;;;;;;205.40;1254.40;;;;;;5035858;28;19913;-62
2022/03/18 05:36:27;;;;;;;;;;;205.40;1254.40;;;;;;5035844;28;19935;-62
2022/03/18 05:38:53;;;;;;;;;;;205.50;1254.40;;;;;;5035797;28;19956;-62
2022/03/18 05:41:18;;;;;;;;;;;205.50;1228.80;;;;;;5035516;28;20354;-62
2022/03/18 05:43:44;;;;;;;;;;;205.50;1254.40;;;;;;5035386;28;19910;-63
2022/03/18 05:46:11;;;;;;;;;;;205.50;1228.80;;;;;;5035304;28;19917;-62
2022/03/18 05:48:37;;;;;;;;;;;205.50;1254.40;;;;;;5035424;28;19909;-62
2022/03/18 05:51:02;;;;;;;;;;;205.50;1228.80;;;;;;5035398;28;19909;-62
2022/03/18 05:53:28;;;;;;;;;;;205.50;1228.80;;;;;;5035886;28;20024;-62
2022/03/18 05:58:39;;;;;;;;;;;205.60;1228.80;;;;;;5036070;28;20441;-62
2022/03/18 06:01:04;;;;;;;;;;;205.60;1203.20;;;;;;5035813;28;19949;-62
2022/03/18 06:03:30;;;;;;;;;;;205.60;1203.20;;;;;;5035172;28;19921;-62
2022/03/18 06:05:56;;;;;;;;;;;205.60;1203.20;;;;;;5035455;28;20351;-61
2022/03/18 06:14:10;;;;;;;;;;;205.60;1177.60;;;;;;5014018;28;19960;-61
2022/03/18 06:16:37;;;;;;;;;;;205.40;1177.60;;;;;;5005633;28;20000;-62
2022/03/18 06:19:03;;;;;;;;;;;205.40;1177.60;;;;;;4994113;28;19913;-61
2022/03/18 06:21:28;;;;;;;;;;;205.40;1177.60;;;;;;4994129;28;19996;-63
2022/03/18 06:23:54;;;;;;;;;;;205.40;1177.60;;;;;;4994003;28;19909;-63
2022/03/18 06:26:19;;;;;;;;;;;205.40;1203.20;;;;;;4993791;28;19918;-63
2022/03/18 06:28:45;;;;;;;;;;;205.50;1177.60;;;;;;4993707;28;20352;-63
2022/03/18 06:31:11;;;;;;;;;;;205.50;1177.60;;;;;;4993662;28;19917;-63
2022/03/18 06:33:43;;;;;;;;;;;205.50;1177.60;;;;;;4993495;28;19917;-63
2022/03/18 06:36:09;;;;;;;;;;;205.60;1177.60;;;;;;4993824;28;19932;-64
2022/03/18 06:38:35;;;;;;;;;;;205.60;1177.60;;;;;;4993696;28;19910;-63
2022/03/18 06:41:00;;;;;;;;;;;205.60;1177.60;;;;;;4994031;28;19921;-63
2022/03/18 06:43:26;;;;;;;;;;;205.70;1177.60;;;;;;5015168;28;19916;-63
2022/03/18 06:45:51;;;;;;;;;;;205.70;1177.60;;;;;;5015068;28;19960;-63
2022/03/18 06:48:17;;;;;;;;;;;205.70;1177.60;;;;;;5015519;28;19916;-63
2022/03/18 06:50:42;;;;;;;;;;;205.70;1177.60;;;;;;5015170;28;19932;-63
2022/03/18 06:53:08;;;;;;;;;;;230.40;1177.60;;;;;;5015236;28;19909;-63
2022/03/18 06:55:35;;;;;;;;;;;230.40;1177.60;;;;;;5015152;28;20003;-63
2022/03/18 06:58:01;;;;;;;;;;;230.40;1177.60;;;;;;5014906;28;19917;-63
2022/03/18 07:00:26;;;;;;;;;;;230.40;1177.60;;;;;;5014958;28;19909;-63
2022/03/18 07:02:52;;;;;;;;;;;230.50;1177.60;;;;;;5014683;28;19967;-64
2022/03/18 07:05:18;;;;;;;;;;;230.50;1177.60;;;;;;5014730;28;19964;-62
2022/03/18 07:07:43;;;;;;;;;;;230.50;1152.00;;;;;;5015076;28;19914;-62
2022/03/18 07:10:11;;;;;;;;;;;230.60;1152.00;;;;;;5014767;28;20412;-62
2022/03/18 07:12:36;;;;;;;;;;;230.70;1152.00;;;;;;5015140;28;20502;-63
2022/03/18 07:15:02;;;;;;;;;;;230.70;1177.60;;;;;;5014614;28;19964;-62
2022/03/18 07:20:13;;;;;;;;;;;230.80;1152.00;;;;;;5014624;28;19915;-62
2022/03/18 07:22:39;;;;;;;;;;;230.80;1152.00;;;;;;5014806;28;19910;-62
2022/03/18 07:25:04;;;;;;;;;;;230.90;1152.00;;;;;;5014457;28;19916;-62
2022/03/18 07:27:30;;;;;;;;;;;230.90;1126.40;;;;;;5014203;28;19957;-63
2022/03/18 07:29:57;;;;;;;;;;;230.90;1126.40;;;;;;5014765;28;19921;-62
2022/03/18 07:32:22;;;;;;;;;;;231.00;1126.40;;;;;;5014445;28;20371;-62
2022/03/18 07:34:48;;;;;;;;;;;231.00;1100.80;;;;;;5014653;28;19909;-63
2022/03/18 07:37:14;;;;;;;;;;;231.00;1100.80;;;;;;5014918;28;20390;-62
2022/03/18 07:39:40;;;;;;;;;;;231.00;1100.80;;;;;;5014232;28;19952;-63
2022/03/18 07:42:05;;;;;;;;;;;231.10;1075.20;;;;;;5014496;28;19913;-62
2022/03/18 07:44:31;;;;;;;;;;;231.10;1075.20;;;;;;5013798;28;19910;-62
2022/03/18 07:46:56;;;;;;;;;;;231.10;1075.20;;;;;;5014404;28;19917;-62
2022/03/18 07:49:22;;;;;;;;;;;231.10;1075.20;;;;;;5014479;28;19913;-62
2022/03/18 07:51:48;;;;;;;;;;;231.20;1049.60;;;;;;5014333;28;19910;-62
2022/03/18 07:54:13;;;;;;;;;;;231.20;1049.60;;;;;;5013895;28;19910;-62
2022/03/18 07:56:39;;;;;;;;;;;231.30;1049.60;;;;;;5014762;28;19909;-63
2022/03/18 07:59:05;;;;;;;;;;;231.30;1024.00;;;;;;5014388;28;20359;-62
2022/03/18 08:01:30;;;;;;;;;;;231.30;1024.00;;;;;;5014105;28;19910;-62
2022/03/18 08:03:56;;;;;;;;;;;256.00;1024.00;;;;;;5014049;28;20004;-62
2022/03/18 08:06:21;;;;;;;;;;;256.10;1024.00;;;;;;5014180;28;19917;-62
2022/03/18 08:08:47;;;;;;;;;;;256.10;1049.60;;;;;;5014096;28;19913;-62
2022/03/18 08:11:14;;;;;;;;;;;256.20;1024.00;;;;;;5014091;28;19910;-62
2022/03/18 08:13:39;;;;;;;;;;;256.30;1024.00;;;;;;5014031;28;19945;-62
2022/03/18 08:16:05;;;;;;;;;;;256.30;1024.00;;;;;;5014509;28;19920;-62
2022/03/18 08:18:31;;;;;;;;;;;256.40;1024.00;;;;;;5014216;28;19963;-63
2022/03/18 08:20:56;;;;;;;;;;;256.50;998.40;;;;;;5014158;28;20241;-62
2022/03/18 08:23:23;;;;;;;;;;;256.50;998.40;;;;;;5014098;28;19910;-62
2022/03/18 08:25:48;;;;;;;;;;;256.60;972.80;;;;;;5013833;28;19918;-62
2022/03/18 08:28:14;;;;;;;;;;;256.70;998.40;;;;;;5014163;28;20383;-62
2022/03/18 08:30:40;;;;;;;;;;;256.80;998.40;;;;;;5013982;28;20004;-62
2022/03/18 08:33:05;;;;;;;;;;;256.80;972.80;;;;;;5013837;28;20005;-62
2022/03/18 08:35:31;;;;;;;;;;;256.90;972.80;;;;;;5013661;28;19909;-62
2022/03/18 08:37:57;;;;;;;;;;;256.90;972.80;;;;;;5014110;28;20051;-62
2022/03/18 08:40:26;;;;;;;;;;;256.90;947.20;;;;;;5013844;28;19910;-62
2022/03/18 08:42:52;;;;;;;;;;;281.60;972.80;;;;;;5013996;28;19909;-62
2022/03/18 08:45:18;;;;;;;;;;;281.60;972.80;;;;;;5013322;28;20314;-63
2022/03/18 08:47:44;;;;;;;;;;;281.60;972.80;;;;;;5013826;28;19913;-62
2022/03/18 08:50:10;;;;;;;;;;;281.70;972.80;;;;;;5013998;28;19909;-62
2022/03/18 08:52:36;;;;;;;;;;;281.80;972.80;;;;;;5013870;28;20423;-62
2022/03/18 08:55:02;;;;;;;;;;;281.80;972.80;;;;;;5014275;28;19955;-62
2022/03/18 08:57:28;;;;;;;;;;;281.80;972.80;;;;;;5017339;28;19910;-62
2022/03/18 08:59:54;;;;;;;;;;;281.90;947.20;;;;;;5017440;28;19916;-62
2022/03/18 09:02:20;;;;;;;;;;;281.80;947.20;;;;;;5017105;28;19922;-63
2022/03/18 09:04:48;;;;;;;;;;;281.90;947.20;;;;;;5016989;28;20390;-62
2022/03/18 09:07:14;;;;;;;;;;;281.90;947.20;;;;;;5017261;28;19926;-62
2022/03/18 09:09:39;;;;;;;;;;;282.00;921.60;;;;;;5016673;28;19933;-62
2022/03/18 09:12:05;;;;;;;;;;;282.00;947.20;;;;;;5017063;28;19913;-62
2022/03/18 09:14:31;;;;;;;;;;;282.10;947.20;;;;;;5016870;28;20374;-62
2022/03/18 09:16:56;;;;;;;;;;;282.10;921.60;;;;;;5016792;28;19916;-62
2022/03/18 09:19:23;;;;;;;;;;;282.10;921.60;;;;;;5017006;28;19909;-62
2022/03/18 09:21:49;;;;;;;;;;;282.20;896.00;;;;;;5016921;28;19910;-62
2022/03/18 09:24:15;;;;;;;;;;;282.20;921.60;;;;;;5016731;28;20271;-63
2022/03/18 09:26:40;;;;;;;;;;;282.20;921.60;;;;;;5016731;28;19932;-62
2022/03/18 09:29:06;;;;;;;;;;;282.30;921.60;;;;;;5017012;28;19909;-62
2022/03/18 09:31:32;;;;;;;;;;;282.30;896.00;;;;;;5016102;28;19996;-62
2022/03/18 09:33:58;;;;;;;;;;;282.40;896.00;;;;;;5016702;28;19964;-62
2022/03/18 09:36:24;;;;;;;;;;;282.40;896.00;;;;;;5016725;28;19949;-62
2022/03/18 09:38:50;;;;;;;;;;;282.40;896.00;;;;;;5016356;28;19909;-62
2022/03/18 09:41:16;;;;;;;;;;;282.50;896.00;;;;;;5016514;28;19913;-62
2022/03/18 09:43:42;;;;;;;;;;;307.20;921.60;;;;;;5016266;28;19917;-61
2022/03/18 09:46:12;;;;;;;;;;;307.20;921.60;;;;;;5016437;28;20020;-62
2022/03/18 09:48:38;;;;;;;;;;;307.20;921.60;;;;;;5016604;28;19913;-61
2022/03/18 09:51:04;;;;;;;;;;;307.20;896.00;;;;;;5016476;28;19963;-62
2022/03/18 09:53:29;;;;;;;;;;;307.20;896.00;;;;;;5015191;28;20008;-61
2022/03/18 09:55:55;;;;;;;;;;;307.30;896.00;;;;;;5018034;28;19917;-62
2022/03/18 09:58:22;;;;;;;;;;;307.40;896.00;;;;;;5034125;28;19964;-62
2022/03/18 10:00:47;;;;;;;;;;;307.40;896.00;;;;;;5034313;28;20422;-62
2022/03/18 10:03:16;;;;;;;;;;;307.40;870.40;;;;;;5034166;28;19928;-61
2022/03/18 11:01:40;;;;;;;35.05;15.38;;;282.10;896.00;;;;;;5111288;27;20703;-59
2022/03/18 11:04:06;;;;;;;21.70;11.52;;;308.10;896.00;;;;;;5110753;28;20545;-59
2022/03/18 11:06:32;;;;;;;18.80;10.90;;;332.80;921.60;;;;;;5110097;28;20039;-60
2022/03/18 11:08:58;;;;;;;19.58;9.75;;;332.80;896.00;;;;;;5111349;28;20024;-58
2022/03/18 11:11:27;;;;;;;18.88;9.40;;;332.90;896.00;;;;;;5110940;28;20496;-59
2022/03/18 11:14:00;;;;;;;15.55;8.45;;;333.00;896.00;;;;;;5110026;28;20039;-57
2022/03/18 11:16:31;;;;;;;13.25;8.25;;;333.00;896.00;;;;;;5107967;28;20519;-58
2022/03/18 11:18:58;;;;;;;12.95;8.18;;;333.10;870.40;;;;;;5110874;28;20035;-58
2022/03/18 11:21:35;;;;;;;13.65;7.90;;;333.20;844.80;;;;;;5109689;28;20035;-60
2022/03/18 11:24:05;;;;;;;19.42;8.80;;;333.30;844.80;;;;;;5109234;28;20040;-60
2022/03/18 11:26:34;;;;;;;16.27;9.85;;;333.30;844.80;;;;;;5110358;28;20099;-60
2022/03/18 11:29:13;;;;;;;14.52;8.25;;;333.30;844.80;;;;;;5109760;28;20027;-58
2022/03/18 11:31:39;;;;;;;14.18;9.15;;;333.40;844.80;;;;;;5109056;28;20024;-59
2022/03/18 11:34:14;;;;;;;16.25;9.40;;;333.40;844.80;;;;;;5110238;28;20497;-58
2022/03/18 11:37:05;;;;;;;13.63;8.82;;;333.40;844.80;;;;;;5108745;28;20426;-59
2022/03/18 11:39:31;;;;;;;18.77;9.23;;;333.50;844.80;;;;;;5107602;28;20016;-58
2022/03/18 11:42:03;;;;;;;12.23;8.00;;;333.50;870.40;;;;;;5109962;28;20076;-59
2022/03/18 11:44:54;;;;;;;20.23;10.57;;;333.50;819.20;;;;;;5110120;28;20020;-58
2022/03/18 11:47:23;;;;;;;13.75;8.30;;;333.60;819.20;;;;;;5108861;28;20027;-60
2022/03/18 11:49:50;;;;;;;14.25;8.57;;;333.60;844.80;;;;;;5108191;28;20035;-59
2022/03/18 11:52:16;;;;;;;13.68;8.75;;;333.70;819.20;;;;;;5109090;28;20031;-58
2022/03/18 11:54:52;;;;;;;19.15;10.05;;;333.70;844.80;;;;;;5108353;28;20019;-60
2022/03/18 11:57:29;;;;;;;22.38;11.65;;;333.70;819.20;;;;;;5107183;28;20065;-60
2022/03/18 11:59:57;;;;;;;20.67;11.40;;;333.70;844.80;;;;;;5110161;28;20504;-59
2022/03/18 12:02:37;;;;;;;32.25;17.02;;;333.70;844.80;;;;;;5098008;28;20377;-61
2022/03/18 12:05:05;;;;;;;27.65;14.05;;;358.40;844.80;;;;;;5096261;28;20028;-58
2022/03/18 12:07:46;;;;;;;24.70;13.27;;;358.40;844.80;;;;;;5096617;28;20020;-58
2022/03/18 12:10:16;;;;;;;17.50;11.32;;;358.50;819.20;;;;;;5096013;28;20036;-58
2022/03/18 12:12:46;;;;;;;15.93;10.43;;;358.50;844.80;;;;;;5095978;28;20465;-58
2022/03/18 12:15:16;;;;;;;16.00;9.85;;;358.60;844.80;;;;;;5096305;28;20427;-58
2022/03/18 12:17:53;;;;;;;16.10;9.90;;;358.60;819.20;;;;;;5096961;28;20426;-58
2022/03/18 12:20:21;;;;;;;15.85;9.25;;;358.60;819.20;;;;;;5096067;28;20488;-58
2022/03/18 12:22:48;;;;;;;13.15;9.25;;;358.60;819.20;;;;;;5096053;28;20070;-58
2022/03/18 12:25:14;;;;;;;20.55;9.18;;;358.60;819.20;;;;;;5096467;28;20107;-58
2022/03/18 12:27:43;;;;;;;16.42;9.60;;;358.70;819.20;;;;;;5095737;28;20538;-58
2022/03/18 12:30:12;;;;;;;16.35;10.30;;;358.70;819.20;;;;;;5096257;28;20043;-58
2022/03/18 12:32:53;;;;;;;14.00;9.52;;;358.70;819.20;;;;;;5096238;28;20390;-60
2022/03/18 12:35:26;;;;;;;14.50;9.63;;;358.70;819.20;;;;;;5095575;28;20028;-59
2022/03/18 12:38:24;;;;;;;15.98;10.45;;;358.70;819.20;;;;;;5096111;28;20016;-60
2022/03/18 12:40:59;;;;;;;15.48;9.63;;;358.70;819.20;;;;;;5095467;28;20043;-60
2022/03/18 12:43:31;;;;;;;16.60;9.48;;;358.70;819.20;;;;;;5095894;28;20066;-59
2022/03/18 12:45:59;;;;;;;13.65;9.27;;;358.70;844.80;;;;;;5095933;28;20051;-59
2022/03/18 12:48:25;;;;;;;19.48;9.98;;;358.70;819.20;;;;;;5095553;28;20027;-59
2022/03/18 12:50:55;;;;;;;22.98;9.70;;;358.70;819.20;;;;;;5095596;28;20032;-59
2022/03/18 12:53:25;;;;;;;13.68;8.98;;;358.60;793.60;;;;;;5095689;28;20020;-59
2022/03/18 12:56:03;;;;;;;16.50;9.32;;;358.60;819.20;;;;;;5095115;28;20024;-61
2022/03/18 12:58:36;;;;;;;19.00;10.25;;;358.60;819.20;;;;;;5095515;28;20070;-59
2022/03/18 13:01:02;;;;;;;15.82;8.95;;;358.60;819.20;;;;;;5095568;28;20508;-59
2022/03/18 13:03:30;;;;;;;18.55;11.30;;;358.60;819.20;;;;;;5095098;28;20035;-59
2022/03/18 13:06:28;;;;;;;25.13;11.77;;;358.70;819.20;;;;;;5095655;28;20046;-59
2022/03/18 13:09:07;;;;;;;20.55;11.02;;;358.80;793.60;;;;;;5095456;28;20039;-60
2022/03/18 13:11:35;;;;;;;17.83;10.93;;;358.80;793.60;;;;;;5095094;28;20035;-59
2022/03/18 13:14:02;;;;;;;16.17;9.63;;;358.80;793.60;;;;;;5094088;28;20024;-59
2022/03/18 13:16:42;;;;;;;15.93;9.63;;;358.80;793.60;;;;;;5095502;28;20024;-60
2022/03/18 13:19:08;;;;;;;13.57;9.25;;;358.90;793.60;;;;;;5094916;28;20052;-59
2022/03/18 13:21:41;;;;;;;13.95;8.80;;;358.90;793.60;;;;;;5095131;28;20027;-59
2022/03/18 13:24:08;;;;;;;14.68;8.27;;;358.90;793.60;;;;;;5094695;28;20053;-60
2022/03/18 13:26:34;;;;;;;17.52;9.25;;;358.90;768.00;;;;;;5094727;28;20035;-60
2022/03/18 13:29:00;;;;;;;16.60;9.75;;;358.90;793.60;;;;;;5094901;28;20108;-59
2022/03/18 13:34:10;;;;;;;18.73;10.85;;;359.00;793.60;;;;;;5094569;28;20043;-59
2022/03/18 13:36:37;;;;;;;15.82;9.75;;;359.00;793.60;;;;;;5094706;28;20090;-59
2022/03/18 13:39:06;;;;;;;12.50;9.10;;;359.00;793.60;;;;;;5094796;28;20027;-59
2022/03/18 13:42:01;;;;;;;16.15;9.77;;;359.00;793.60;;;;;;5094514;28;20028;-59
2022/03/18 13:44:44;;;;;;;16.63;9.85;;;359.00;793.60;;;;;;5012669;28;20483;-58
2022/03/18 13:47:10;;;;;;;16.88;9.98;;;359.00;793.60;;;;;;5012860;28;20487;-59
2022/03/18 13:49:36;;;;;;;13.77;9.52;;;358.90;793.60;;;;;;5012075;28;20101;-58
2022/03/18 13:52:05;;;;;;;14.30;10.05;;;358.90;793.60;;;;;;5012621;28;20033;-60
2022/03/18 13:54:45;;;;;;;12.93;8.95;;;358.90;793.60;;;;;;5012362;28;20038;-59
2022/03/18 13:57:11;;;;;;;16.15;9.57;;;358.90;793.60;;;;;;5012066;28;20026;-59
2022/03/18 13:59:48;;;;;;;18.55;9.80;;;358.90;793.60;;;;;;5012385;28;20064;-59
2022/03/18 14:02:31;;;;;;;16.38;9.30;;;358.90;793.60;;;;;;5012190;28;20041;-60
2022/03/18 14:04:58;;;;;;;16.52;10.10;;;359.00;793.60;;;;;;5012367;28;20033;-59
2022/03/18 14:07:47;;;;;;;14.20;9.95;;;359.00;819.20;;;;;;5012315;28;20034;-59
2022/03/18 14:10:13;;;;;;;16.15;10.15;;;359.00;819.20;;;;;;5011787;28;20068;-58
2022/03/18 14:12:42;;;;;;;15.98;10.55;;;358.90;819.20;;;;;;5012139;28;20025;-59
2022/03/18 14:15:15;;;;;;;19.05;11.55;;;358.90;819.20;;;;;;5012222;28;20085;-59
2022/03/18 14:18:07;;;;;;;22.58;11.38;;;358.80;819.20;;;;;;5011819;28;20467;-59
2022/03/18 14:20:35;;;;;;;20.23;12.70;;;358.80;844.80;;;;;;5038846;28;20429;-59
2022/03/18 14:23:19;;;;;;;26.50;14.60;;;358.80;844.80;;;;;;5091211;28;20028;-64
2022/03/18 14:25:45;;;;;;;31.30;15.27;;;358.80;870.40;;;;;;5091284;28;20078;-59
2022/03/18 14:28:26;;;;;;;32.85;14.85;;;358.70;870.40;;;;;;5091235;28;20038;-60
2022/03/18 14:30:52;;;;;;;27.70;13.05;;;358.70;870.40;;;;;;5091163;28;20035;-59
2022/03/18 14:33:20;;;;;;;17.90;12.77;;;358.60;870.40;;;;;;5091745;28;20105;-61
2022/03/18 14:35:48;;;;;;;19.67;12.13;;;358.60;870.40;;;;;;5089464;28;20553;-60
2022/03/18 14:38:14;;;;;;;16.73;11.52;;;358.50;870.40;;;;;;5092564;28;20020;-59